Time,TemperatureF,DewpointF,PressureIn,WindDirection,WindDirectionDegrees,WindSpeedMPH,WindSpeedGustMPH,Humidity,HourlyPrecipIn,Conditions,Clouds,dailyrainin,SoftwareType,DateUTC
2013-06-28 02:11:00,84.0,24.0,30.05,North,9,1.0,4.0,11,0.00,,,-99.99,,2013-06-28 08:11:00,
2013-06-28 02:21:00,84.0,24.0,30.06,NNE,18,3.0,5.0,11,0.00,,,-99.99,,2013-06-28 08:21:00,
2013-06-28 02:33:00,85.0,22.0,30.06,East,84,2.0,6.0,10,0.00,,,-99.99,,2013-06-28 08:33:00,
2013-06-28 03:11:00,84.0,24.0,30.05,ENE,61,13.0,27.0,11,0.00,,,-99.99,,2013-06-28 09:11:00,
2013-06-28 03:22:00,84.0,28.0,30.05,East,84,9.0,24.0,13,0.00,,,-99.99,,2013-06-28 09:22:00,
2013-06-28 03:33:00,83.0,29.0,30.05,NE,56,21.0,35.0,14,0.00,,,-99.99,,2013-06-28 09:33:00,
2013-06-28 03:42:00,83.0,31.0,30.05,East,95,15.0,30.0,15,0.00,,,-99.99,,2013-06-28 09:42:00,
2013-06-28 03:52:00,83.0,32.0,30.05,East,99,25.0,27.0,16,0.00,,,-99.99,,2013-06-28 09:52:00,
2013-06-28 04:02:00,82.0,33.0,30.07,SSE,149,22.0,23.0,17,0.00,,,-99.99,,2013-06-28 10:02:00,
2013-06-28 04:11:00,82.0,33.0,30.08,SE,127,18.0,24.0,17,0.00,,,-99.99,,2013-06-28 10:11:00,
2013-06-28 04:22:00,82.0,37.0,30.08,SSE,154,11.0,35.0,20,0.00,,,-99.99,,2013-06-28 10:22:00,
2013-06-28 04:33:00,81.0,39.0,30.09,ESE,118,13.0,33.0,22,0.00,,,-99.99,,2013-06-28 10:33:00,
2013-06-28 04:42:00,80.0,39.0,30.10,ESE,113,23.0,35.0,23,0.00,,,-99.99,,2013-06-28 10:42:00,
2013-06-28 04:52:00,79.0,39.0,30.10,ENE,57,17.0,34.0,24,0.00,,,-99.99,,2013-06-28 10:52:00,
2013-06-28 05:02:00,79.0,40.0,30.10,East,98,32.0,40.0,25,0.00,,,-99.99,,2013-06-28 11:02:00,
2013-06-28 05:11:00,78.0,40.0,30.10,East,101,25.0,34.0,26,0.00,,,-99.99,,2013-06-28 11:11:00,
2013-06-28 05:34:00,77.0,42.0,30.11,ENE,68,25.0,39.0,29,0.00,,,-99.99,,2013-06-28 11:34:00,
2013-06-28 05:43:00,77.0,43.0,30.11,East,97,23.0,38.0,30,0.00,,,-99.99,,2013-06-28 11:43:00,
2013-06-28 05:53:00,76.0,42.0,30.11,East,85,19.0,43.0,30,0.00,,,-99.99,,2013-06-28 11:53:00,
2013-06-28 06:01:00,76.0,42.0,30.13,ESE,109,11.0,38.0,30,0.00,,,-99.99,,2013-06-28 12:01:00,
2013-06-28 06:12:00,76.0,43.0,30.13,ESE,108,14.0,30.0,31,0.00,,,-99.99,,2013-06-28 12:12:00,
2013-06-28 06:22:00,75.0,45.0,30.14,ESE,112,13.0,30.0,34,0.00,,,-99.99,,2013-06-28 12:22:00,
2013-06-28 06:33:00,74.0,46.0,30.14,ENE,78,18.0,30.0,37,0.00,,,-99.99,,2013-06-28 12:33:00,
2013-06-28 06:43:00,74.0,45.0,30.14,ENE,73,19.0,38.0,36,0.00,,,-99.99,,2013-06-28 12:43:00,
2013-06-28 06:52:00,74.0,46.0,30.15,ENE,71,23.0,36.0,37,0.00,,,-99.99,,2013-06-28 12:52:00,
2013-06-28 07:01:00,74.0,46.0,30.15,ENE,70,22.0,32.0,37,0.00,,,-99.99,,2013-06-28 13:01:00,
2013-06-28 07:11:00,74.0,43.0,30.15,ENE,68,23.0,27.0,33,0.00,,,-99.99,,2013-06-28 13:11:00,
2013-06-28 07:23:00,75.0,42.0,30.15,ENE,75,17.0,29.0,31,0.00,,,-99.99,,2013-06-28 13:23:00,
2013-06-28 07:33:00,76.0,41.0,30.15,East,85,21.0,31.0,28,0.00,,,-99.99,,2013-06-28 13:33:00,
2013-06-28 07:43:00,77.0,40.0,30.16,East,82,17.0,23.0,27,0.00,,,-99.99,,2013-06-28 13:43:00,
2013-06-28 07:53:00,78.0,40.0,30.17,ENE,68,24.0,26.0,26,0.00,,,-99.99,,2013-06-28 13:53:00,
2013-06-28 08:01:00,78.0,40.0,30.17,ENE,64,14.0,27.0,26,0.00,,,-99.99,,2013-06-28 14:01:00,
2013-06-28 08:11:00,79.0,41.0,30.19,NE,43,14.0,22.0,26,0.00,,,-99.99,,2013-06-28 14:11:00,
2013-06-28 08:22:00,79.0,40.0,30.19,NNE,26,6.0,17.0,25,0.00,,,-99.99,,2013-06-28 14:22:00,
2013-06-28 08:33:00,78.0,41.0,30.19,NNW,343,7.0,13.0,27,0.00,,,-99.99,,2013-06-28 14:33:00,
2013-06-28 08:44:00,79.0,41.0,30.19,North,1,6.0,12.0,26,0.00,,,-99.99,,2013-06-28 14:44:00,
2013-06-28 08:53:00,79.0,42.0,30.19,NNW,345,4.0,9.0,27,0.00,,,-99.99,,2013-06-28 14:53:00,
2013-06-28 09:02:00,80.0,42.0,30.19,NNW,333,7.0,9.0,26,0.00,,,-99.99,,2013-06-28 15:02:00,
2013-06-28 09:11:00,80.0,42.0,30.19,NNW,336,8.0,9.0,26,0.00,,,-99.99,,2013-06-28 15:11:00,
2013-06-28 09:24:00,80.0,41.0,30.18,NNW,344,5.0,11.0,25,0.00,,,-99.99,,2013-06-28 15:24:00,
2013-06-28 09:34:00,81.0,41.0,30.18,NNW,331,4.0,9.0,24,0.00,,,-99.99,,2013-06-28 15:34:00,
2013-06-28 09:43:00,81.0,41.0,30.18,WNW,291,7.0,9.0,24,0.00,,,-99.99,,2013-06-28 15:43:00,
2013-06-28 09:52:00,82.0,39.0,30.18,NNW,333,7.0,9.0,22,0.00,,,-99.99,,2013-06-28 15:52:00,
2013-06-28 10:01:00,82.0,39.0,30.18,NNW,348,3.0,8.0,22,0.00,,,-99.99,,2013-06-28 16:01:00,
2013-06-28 10:11:00,83.0,39.0,30.18,NNE,25,6.0,8.0,21,0.00,,,-99.99,,2013-06-28 16:11:00,
2013-06-28 10:24:00,83.0,39.0,30.18,NNW,344,8.0,8.0,21,0.00,,,-99.99,,2013-06-28 16:24:00,
2013-06-28 10:33:00,84.0,39.0,30.18,North,8,5.0,8.0,20,0.00,,,-99.99,,2013-06-28 16:33:00,
2013-06-28 10:44:00,84.0,39.0,30.17,NNW,327,6.0,11.0,20,0.00,,,-99.99,,2013-06-28 16:44:00,
2013-06-28 10:53:00,86.0,38.0,30.18,NNE,28,6.0,9.0,18,0.00,,,-99.99,,2013-06-28 16:53:00,
2013-06-28 11:02:00,85.0,37.0,30.18,SE,126,3.0,8.0,18,0.00,,,-99.99,,2013-06-28 17:02:00,
2013-06-28 12:11:00,88.0,35.0,30.15,SE,127,9.0,9.0,15,0.00,,,-99.99,,2013-06-28 18:11:00,
2013-06-28 12:22:00,89.0,34.0,30.14,SSE,147,6.0,10.0,14,0.00,,,-99.99,,2013-06-28 18:22:00,
2013-06-28 12:43:00,88.0,35.0,30.14,West,272,5.0,6.0,15,0.00,,,-99.99,,2013-06-28 18:43:00,
2013-06-28 15:11:00,89.0,32.0,30.06,SE,135,10.0,21.0,13,0.00,,,-99.99,,2013-06-28 21:11:00,
2013-06-28 18:11:00,87.0,30.0,30.05,East,81,21.0,21.0,13,0.00,,,-99.99,,2013-06-29 00:11:00,
2013-06-28 18:22:00,86.0,31.0,30.05,East,80,20.0,27.0,14,0.00,,,-99.99,,2013-06-29 00:22:00,
2013-06-28 18:52:00,85.0,34.0,30.05,East,85,22.0,38.0,16,0.00,,,-99.99,,2013-06-29 00:52:00,
2013-06-28 19:01:00,84.0,34.0,30.04,ESE,105,25.0,38.0,17,0.00,,,-99.99,,2013-06-29 01:01:00,
2013-06-28 19:22:00,85.0,35.0,30.05,ENE,75,14.0,36.0,17,0.00,,,-99.99,,2013-06-29 01:22:00,
2013-06-28 19:31:00,84.0,34.0,30.04,ENE,75,16.0,27.0,17,0.00,,,-99.99,,2013-06-29 01:31:00,
2013-06-28 19:51:00,85.0,35.0,30.04,East,99,15.0,27.0,17,0.00,,,-99.99,,2013-06-29 01:51:00,
2013-06-28 20:01:00,85.0,35.0,30.04,East,99,15.0,27.0,17,0.00,,,-99.99,,2013-06-29 02:01:00,
2013-06-28 20:11:00,85.0,35.0,30.04,East,99,15.0,27.0,17,0.00,,,-99.99,,2013-06-29 02:11:00,
2013-06-28 20:21:00,81.0,40.0,30.11,WSW,246,2.0,8.0,23,0.00,,,-99.99,,2013-06-29 02:21:00,
2013-06-28 20:31:00,81.0,40.0,30.11,WSW,246,2.0,8.0,23,0.00,,,-99.99,,2013-06-29 02:31:00,
2013-06-28 20:41:00,77.0,44.0,30.18,North,358,9.0,38.0,31,0.00,,,-99.99,,2013-06-29 02:41:00,
2013-06-28 20:51:00,77.0,44.0,30.18,North,358,9.0,38.0,31,0.00,,,-99.99,,2013-06-29 02:51:00,
2013-06-28 21:01:00,76.0,45.0,30.18,NNW,329,13.0,38.0,33,0.00,,,-99.99,,2013-06-29 03:01:00,
2013-06-28 21:11:00,75.0,47.0,30.18,NNW,345,22.0,33.0,37,0.00,,,-99.99,,2013-06-29 03:11:00,
2013-06-28 21:21:00,75.0,47.0,30.18,NNW,345,22.0,33.0,37,0.00,,,-99.99,,2013-06-29 03:21:00,
2013-06-28 21:32:00,75.0,44.0,30.17,NNE,25,10.0,17.0,33,0.00,,,-99.99,,2013-06-29 03:32:00,
2013-06-28 21:41:00,76.0,44.0,30.17,North,352,13.0,21.0,32,0.00,,,-99.99,,2013-06-29 03:41:00,
2013-06-28 21:51:00,78.0,41.0,30.18,NNE,21,22.0,27.0,27,0.00,,,-99.99,,2013-06-29 03:51:00,
2013-06-28 22:01:00,78.0,42.0,30.18,NE,39,13.0,27.0,28,0.00,,,-99.99,,2013-06-29 04:01:00,
2013-06-28 22:11:00,78.0,42.0,30.18,NE,39,13.0,27.0,28,0.00,,,-99.99,,2013-06-29 04:11:00,
2013-06-28 22:22:00,79.0,42.0,30.19,North,2,15.0,25.0,27,0.00,,,-99.99,,2013-06-29 04:22:00,
2013-06-28 22:51:00,80.0,40.0,30.13,SW,225,2.0,6.0,24,0.00,,,-99.99,,2013-06-29 04:51:00,
2013-06-28 23:01:00,80.0,40.0,30.13,SW,225,2.0,6.0,24,0.00,,,-99.99,,2013-06-29 05:01:00,
2013-06-28 23:10:00,80.0,40.0,30.13,SW,225,2.0,6.0,24,0.00,,,-99.99,,2013-06-29 05:10:00,
2013-06-28 23:21:00,80.0,40.0,30.13,SW,225,2.0,6.0,24,0.00,,,-99.99,,2013-06-29 05:21:00,
2013-06-28 23:31:00,79.0,41.0,30.13,SE,144,2.0,6.0,26,0.00,,,-99.99,,2013-06-29 05:31:00,
2013-06-28 23:41:00,78.0,42.0,30.15,SSE,150,4.0,6.0,28,0.00,,,-99.99,,2013-06-29 05:41:00,
2013-06-28 23:52:00,77.0,42.0,30.14,SE,130,4.0,7.0,29,0.00,,,-99.99,,2013-06-29 05:52:00,